Time;durP1;ratioP1;P1;durP2;ratioP2;P2;SDS_P1;SDS_P2;PMS_P1;PMS_P2;Temp;Humidity;BMP_temperature;BMP_pressure;BME280_temperature;BME280_humidity;BME280_pressure;Samples;Min_cycle;Max_cycle;Signal;HPM_P1;HPM_P2
2023/02/19 00:02:17;;;;;;;2.20;1.17;;;;;;;;;;5052326;28;20454;-67
2023/02/19 00:04:44;;;;;;;2.03;1.60;;;;;;;;;;5052108;28;20446;-67
2023/02/19 00:07:12;;;;;;;1.87;1.27;;;;;;;;;;5052918;28;20465;-67
2023/02/19 00:09:39;;;;;;;2.03;1.30;;;;;;;;;;5052692;28;20478;-67
2023/02/19 00:12:07;;;;;;;1.40;1.30;;;;;;;;;;5053415;28;20545;-68
2023/02/19 00:14:36;;;;;;;1.70;1.30;;;;;;;;;;5052505;28;20449;-68
2023/02/19 00:17:03;;;;;;;1.50;1.40;;;;;;;;;;5052439;28;20450;-68
2023/02/19 00:19:30;;;;;;;1.77;1.27;;;;;;;;;;5052469;28;20446;-68
2023/02/19 00:21:57;;;;;;;2.60;1.37;;;;;;;;;;5052005;28;20986;-67
2023/02/19 00:24:24;;;;;;;1.60;1.20;;;;;;;;;;5052305;28;20461;-67
2023/02/19 00:26:51;;;;;;;3.47;1.30;;;;;;;;;;5052005;28;20446;-67
2023/02/19 00:29:20;;;;;;;2.07;1.17;;;;;;;;;;5052659;28;20469;-67
2023/02/19 00:31:49;;;;;;;1.73;1.40;;;;;;;;;;5052274;28;20455;-67
2023/02/19 00:34:16;;;;;;;1.47;1.00;;;;;;;;;;5052073;28;20779;-67
2023/02/19 00:36:43;;;;;;;2.03;1.37;;;;;;;;;;5051913;28;20464;-67
2023/02/19 00:39:14;;;;;;;1.93;1.17;;;;;;;;;;5052553;28;20896;-66
2023/02/19 00:41:41;;;;;;;1.43;1.00;;;;;;;;;;5051743;28;20524;-67
2023/02/19 00:44:08;;;;;;;1.30;1.00;;;;;;;;;;5051873;28;20450;-67
2023/02/19 00:46:36;;;;;;;1.80;1.20;;;;;;;;;;5052075;28;20453;-67
2023/02/19 00:49:05;;;;;;;1.30;1.17;;;;;;;;;;5051575;28;20538;-67
2023/02/19 00:51:34;;;;;;;1.97;1.50;;;;;;;;;;5051995;28;20486;-67
2023/02/19 00:54:01;;;;;;;1.10;0.90;;;;;;;;;;5050916;28;20457;-67
2023/02/19 00:56:29;;;;;;;1.17;0.90;;;;;;;;;;5051986;28;20512;-66
2023/02/19 00:58:56;;;;;;;1.57;1.20;;;;;;;;;;5051704;28;20454;-67
2023/02/19 01:01:23;;;;;;;1.27;1.00;;;;;;;;;;5051984;28;20837;-67
2023/02/19 01:03:50;;;;;;;2.00;1.30;;;;;;;;;;5050806;28;20498;-67
2023/02/19 01:06:19;;;;;;;1.20;1.00;;;;;;;;;;5052014;28;20462;-66
2023/02/19 01:08:46;;;;;;;1.27;1.03;;;;;;;;;;5051356;28;20474;-66
2023/02/19 01:11:14;;;;;;;1.27;0.83;;;;;;;;;;5051870;28;20451;-67
2023/02/19 01:13:42;;;;;;;1.47;1.20;;;;;;;;;;5050774;28;20541;-67
2023/02/19 01:16:11;;;;;;;1.63;1.50;;;;;;;;;;5052240;28;20881;-67
2023/02/19 01:18:39;;;;;;;1.60;1.30;;;;;;;;;;5052037;28;20959;-67
2023/02/19 01:21:07;;;;;;;1.33;1.00;;;;;;;;;;5051790;28;20485;-67
2023/02/19 01:23:36;;;;;;;1.67;1.57;;;;;;;;;;5051379;28;20453;-68
2023/02/19 01:26:05;;;;;;;1.00;0.90;;;;;;;;;;5051035;28;20438;-67
2023/02/19 01:28:32;;;;;;;0.93;0.70;;;;;;;;;;5051561;28;20499;-66
2023/02/19 01:31:01;;;;;;;1.20;1.10;;;;;;;;;;5050879;28;20456;-66
2023/02/19 01:33:28;;;;;;;1.23;0.77;;;;;;;;;;5050603;28;20465;-66
2023/02/19 01:35:55;;;;;;;1.20;1.10;;;;;;;;;;5050751;28;20450;-66
2023/02/19 01:38:22;;;;;;;1.77;1.00;;;;;;;;;;5051183;28;20449;-66
2023/02/19 01:40:56;;;;;;;1.23;0.97;;;;;;;;;;5050407;28;20484;-66
2023/02/19 01:43:23;;;;;;;1.67;1.23;;;;;;;;;;5050843;28;20442;-66
2023/02/19 01:45:50;;;;;;;1.37;1.13;;;;;;;;;;5050479;28;20461;-66
2023/02/19 01:48:19;;;;;;;1.10;0.90;;;;;;;;;;5051013;28;20461;-66
2023/02/19 01:50:49;;;;;;;1.40;1.30;;;;;;;;;;5050737;28;20457;-66
2023/02/19 01:53:19;;;;;;;2.20;1.10;;;;;;;;;;5050916;28;20446;-66
2023/02/19 01:55:47;;;;;;;2.17;1.00;;;;;;;;;;5050417;28;20453;-66
2023/02/19 01:58:16;;;;;;;0.80;0.73;;;;;;;;;;5050746;28;20962;-67
2023/02/19 02:00:43;;;;;;;1.43;1.20;;;;;;;;;;5050111;28;20482;-66
2023/02/19 02:03:10;;;;;;;1.00;0.90;;;;;;;;;;5050403;28;20438;-66
2023/02/19 02:05:45;;;;;;;1.33;1.00;;;;;;;;;;5049896;28;20457;-68
2023/02/19 02:10:58;;;;;;;1.70;1.13;;;;;;;;;;5049762;28;20438;-66
2023/02/19 02:13:26;;;;;;;1.50;0.97;;;;;;;;;;5050272;28;20775;-65
2023/02/19 02:16:00;;;;;;;1.20;0.90;;;;;;;;;;5050039;28;20446;-66
2023/02/19 02:18:32;;;;;;;1.40;0.90;;;;;;;;;;5050639;28;20446;-67
2023/02/19 02:21:04;;;;;;;1.73;0.90;;;;;;;;;;5049601;28;20466;-66
2023/02/19 02:23:38;;;;;;;0.90;0.83;;;;;;;;;;5049986;28;20452;-66
2023/02/19 02:26:09;;;;;;;4.60;0.70;;;;;;;;;;5049889;28;20442;-66
2023/02/19 02:28:49;;;;;;;1.10;1.00;;;;;;;;;;5050924;28;20438;-66
2023/02/19 02:31:20;;;;;;;1.07;0.90;;;;;;;;;;5038955;28;20446;-66
2023/02/19 02:33:50;;;;;;;1.50;1.10;;;;;;;;;;5049848;28;20789;-66
2023/02/19 02:36:19;;;;;;;1.63;1.00;;;;;;;;;;5050830;28;20450;-66
2023/02/19 02:38:47;;;;;;;2.27;0.80;;;;;;;;;;5050112;28;20469;-66
2023/02/19 02:41:14;;;;;;;1.00;0.80;;;;;;;;;;5050620;28;20473;-66
2023/02/19 02:43:42;;;;;;;1.23;0.93;;;;;;;;;;5049414;28;20950;-68
2023/02/19 02:46:11;;;;;;;1.67;0.90;;;;;;;;;;5050776;28;20454;-66
2023/02/19 02:48:42;;;;;;;0.97;0.73;;;;;;;;;;5050145;28;20458;-66
2023/02/19 02:51:12;;;;;;;1.20;1.10;;;;;;;;;;5050755;28;20446;-66
2023/02/19 02:56:26;;;;;;;1.47;1.03;;;;;;;;;;5050200;28;20425;-66
2023/02/19 02:58:55;;;;;;;1.20;0.90;;;;;;;;;;5049949;28;20446;-66
2023/02/19 03:04:11;;;;;;;1.53;1.10;;;;;;;;;;5049963;28;20982;-66
2023/02/19 03:06:38;;;;;;;1.30;1.20;;;;;;;;;;5050143;28;20971;-66
2023/02/19 03:09:09;;;;;;;0.90;0.77;;;;;;;;;;5049713;28;20480;-66
2023/02/19 03:19:57;;;;;;;1.00;0.80;;;;;;;;;;5036995;28;20475;-67
2023/02/19 03:22:26;;;;;;;0.90;0.80;;;;;;;;;;5050083;28;20481;-66
2023/02/19 03:27:41;;;;;;;1.13;0.90;;;;;;;;;;5050090;28;20456;-66
2023/02/19 03:30:11;;;;;;;0.83;0.60;;;;;;;;;;5050309;28;20462;-66
2023/02/19 03:32:40;;;;;;;1.20;0.90;;;;;;;;;;5050241;28;20458;-66
2023/02/19 03:35:12;;;;;;;1.73;1.30;;;;;;;;;;5049833;28;20446;-66
2023/02/19 03:37:42;;;;;;;1.10;0.93;;;;;;;;;;5050388;28;20454;-67
2023/02/19 03:40:09;;;;;;;1.20;0.77;;;;;;;;;;5054091;28;20450;-66
2023/02/19 03:42:40;;;;;;;0.87;0.67;;;;;;;;;;5053703;28;20486;-67
2023/02/19 03:45:15;;;;;;;1.70;1.10;;;;;;;;;;5053390;28;20537;-66
2023/02/19 03:47:48;;;;;;;1.43;0.93;;;;;;;;;;5052770;28;20442;-66
2023/02/19 03:50:18;;;;;;;1.90;1.30;;;;;;;;;;5053420;28;20799;-67
2023/02/19 03:52:53;;;;;;;1.10;0.77;;;;;;;;;;5052681;28;20451;-66
2023/02/19 03:55:24;;;;;;;1.00;0.87;;;;;;;;;;5053096;28;20461;-66
2023/02/19 03:57:53;;;;;;;1.40;1.20;;;;;;;;;;5052945;28;20443;-66
2023/02/19 04:00:23;;;;;;;1.50;1.07;;;;;;;;;;5053237;28;20439;-66
2023/02/19 04:02:54;;;;;;;1.17;0.90;;;;;;;;;;5052434;28;20482;-66
2023/02/19 04:05:25;;;;;;;1.10;0.90;;;;;;;;;;5052376;28;20946;-66
2023/02/19 04:07:54;;;;;;;1.67;0.93;;;;;;;;;;5052111;28;20454;-66
2023/02/19 04:10:22;;;;;;;1.10;0.80;;;;;;;;;;5053065;28;20450;-66
2023/02/19 04:12:51;;;;;;;0.97;0.87;;;;;;;;;;5052158;28;20955;-66
2023/02/19 04:15:20;;;;;;;1.03;0.83;;;;;;;;;;5052642;28;20450;-66
2023/02/19 04:17:52;;;;;;;1.07;0.87;;;;;;;;;;5052243;28;20443;-66
2023/02/19 04:20:20;;;;;;;0.97;0.77;;;;;;;;;;5052536;28;20928;-66
2023/02/19 04:22:49;;;;;;;1.10;1.00;;;;;;;;;;5052404;28;20493;-66
2023/02/19 04:25:16;;;;;;;1.43;0.70;;;;;;;;;;5052615;28;20457;-66
2023/02/19 04:27:45;;;;;;;0.97;0.60;;;;;;;;;;5052339;28;20442;-66
2023/02/19 04:30:13;;;;;;;0.90;0.67;;;;;;;;;;5054673;28;20443;-66
2023/02/19 04:32:40;;;;;;;1.17;0.70;;;;;;;;;;5052682;28;20924;-66
2023/02/19 04:35:07;;;;;;;1.33;0.70;;;;;;;;;;5052239;28;20783;-66
2023/02/19 04:37:34;;;;;;;2.43;1.07;;;;;;;;;;5052544;28;20795;-66
2023/02/19 04:40:03;;;;;;;1.20;0.90;;;;;;;;;;5051661;28;20451;-66
2023/02/19 04:42:30;;;;;;;0.87;0.60;;;;;;;;;;5052574;28;20486;-67
2023/02/19 04:44:57;;;;;;;0.90;0.50;;;;;;;;;;5051445;28;20466;-66
2023/02/19 04:47:24;;;;;;;1.00;0.70;;;;;;;;;;5039187;28;20455;-67
2023/02/19 04:49:51;;;;;;;1.10;0.80;;;;;;;;;;5050890;28;20935;-66
2023/02/19 04:52:18;;;;;;;0.70;0.50;;;;;;;;;;5052494;28;20451;-66
2023/02/19 04:54:45;;;;;;;0.80;0.57;;;;;;;;;;5051136;28;20939;-66
2023/02/19 04:57:14;;;;;;;1.00;0.50;;;;;;;;;;5051995;28;20482;-66
2023/02/19 04:59:41;;;;;;;0.70;0.40;;;;;;;;;;5051115;28;20446;-66
2023/02/19 05:02:08;;;;;;;0.90;0.60;;;;;;;;;;5052098;28;20501;-66
2023/02/19 05:04:35;;;;;;;0.70;0.40;;;;;;;;;;5051488;28;20457;-66
2023/02/19 05:07:02;;;;;;;0.80;0.67;;;;;;;;;;5051033;28;20466;-66
2023/02/19 05:09:29;;;;;;;0.70;0.57;;;;;;;;;;5051511;28;20971;-66
2023/02/19 05:11:56;;;;;;;0.80;0.50;;;;;;;;;;5051203;28;20473;-66
2023/02/19 05:14:25;;;;;;;1.60;0.60;;;;;;;;;;5051318;28;20442;-66
2023/02/19 05:16:52;;;;;;;0.90;0.73;;;;;;;;;;5051194;28;20771;-66
2023/02/19 05:19:19;;;;;;;1.10;0.50;;;;;;;;;;5051394;28;20461;-66
2023/02/19 05:21:46;;;;;;;0.80;0.60;;;;;;;;;;5050689;28;21006;-66
2023/02/19 05:24:13;;;;;;;0.70;0.50;;;;;;;;;;5050585;28;20450;-66
2023/02/19 05:26:41;;;;;;;0.70;0.50;;;;;;;;;;5051479;28;20454;-66
2023/02/19 05:29:08;;;;;;;0.90;0.70;;;;;;;;;;5051470;28;20450;-66
2023/02/19 05:31:36;;;;;;;0.60;0.40;;;;;;;;;;5051251;28;20496;-67
2023/02/19 05:34:03;;;;;;;0.90;0.63;;;;;;;;;;5050341;28;20455;-66
2023/02/19 05:36:31;;;;;;;0.60;0.40;;;;;;;;;;5051488;28;20454;-66
2023/02/19 05:38:58;;;;;;;0.70;0.43;;;;;;;;;;5050859;28;20458;-66
2023/02/19 05:41:26;;;;;;;0.70;0.50;;;;;;;;;;5051343;28;20449;-67
2023/02/19 05:43:54;;;;;;;0.90;0.50;;;;;;;;;;5050146;28;20443;-66
2023/02/19 05:46:22;;;;;;;0.70;0.40;;;;;;;;;;5051449;28;20451;-66
2023/02/19 05:48:51;;;;;;;0.60;0.40;;;;;;;;;;5050720;28;20453;-66
2023/02/19 05:51:19;;;;;;;0.77;0.50;;;;;;;;;;5051506;28;20477;-66
2023/02/19 05:53:47;;;;;;;0.70;0.47;;;;;;;;;;5050103;28;20458;-66
2023/02/19 05:56:23;;;;;;;0.70;0.50;;;;;;;;;;5051256;28;20446;-67
2023/02/19 05:58:50;;;;;;;0.60;0.40;;;;;;;;;;5050808;28;20457;-66
2023/02/19 06:01:18;;;;;;;0.60;0.40;;;;;;;;;;5050039;28;20942;-66
2023/02/19 06:03:45;;;;;;;0.60;0.40;;;;;;;;;;5050375;28;20852;-66
2023/02/19 06:06:14;;;;;;;0.80;0.43;;;;;;;;;;5051235;28;20443;-66
2023/02/19 06:08:41;;;;;;;0.60;0.40;;;;;;;;;;5050397;28;20488;-66
2023/02/19 06:11:09;;;;;;;0.60;0.40;;;;;;;;;;5051355;28;20803;-67
2023/02/19 06:13:36;;;;;;;1.00;0.90;;;;;;;;;;5050908;28;20455;-67
2023/02/19 06:16:04;;;;;;;0.60;0.40;;;;;;;;;;5050695;28;20450;-66
2023/02/19 06:18:31;;;;;;;0.60;0.40;;;;;;;;;;5051279;28;20454;-67
2023/02/19 06:21:01;;;;;;;0.60;0.40;;;;;;;;;;5050058;28;20950;-66
2023/02/19 06:23:30;;;;;;;0.70;0.47;;;;;;;;;;5050689;28;20482;-66
2023/02/19 06:26:05;;;;;;;0.60;0.40;;;;;;;;;;5050460;28;20446;-66
2023/02/19 06:28:32;;;;;;;0.60;0.40;;;;;;;;;;5051203;28;20446;-66
2023/02/19 06:30:59;;;;;;;0.60;0.40;;;;;;;;;;5050239;28;20446;-66
2023/02/19 06:33:26;;;;;;;0.60;0.40;;;;;;;;;;5050325;28;20469;-66
2023/02/19 06:35:53;;;;;;;0.60;0.40;;;;;;;;;;5050077;28;20466;-66
2023/02/19 06:38:21;;;;;;;0.90;0.40;;;;;;;;;;5050772;28;20454;-66
2023/02/19 06:40:50;;;;;;;0.60;0.40;;;;;;;;;;5050385;28;20457;-66
2023/02/19 06:43:17;;;;;;;0.80;0.50;;;;;;;;;;5050099;28;20860;-66
2023/02/19 06:45:44;;;;;;;0.70;0.50;;;;;;;;;;5050252;28;20457;-66
2023/02/19 06:48:11;;;;;;;0.60;0.50;;;;;;;;;;5050672;28;21043;-66
2023/02/19 06:50:38;;;;;;;0.67;0.57;;;;;;;;;;5050817;28;20458;-66
2023/02/19 06:53:07;;;;;;;0.70;0.43;;;;;;;;;;5049896;28;20963;-66
2023/02/19 06:55:34;;;;;;;0.60;0.40;;;;;;;;;;5037782;28;20457;-66
2023/02/19 06:58:03;;;;;;;0.70;0.43;;;;;;;;;;5049923;28;20450;-66
2023/02/19 07:00:30;;;;;;;0.70;0.50;;;;;;;;;;5050208;28;20458;-66
2023/02/19 07:02:57;;;;;;;1.37;0.60;;;;;;;;;;5049381;28;20478;-66
2023/02/19 07:05:24;;;;;;;0.60;0.50;;;;;;;;;;5050111;28;20450;-67
2023/02/19 07:07:51;;;;;;;0.80;0.67;;;;;;;;;;5049873;28;20465;-66
2023/02/19 07:10:18;;;;;;;2.10;0.63;;;;;;;;;;5050625;28;20486;-66
2023/02/19 07:12:45;;;;;;;0.70;0.50;;;;;;;;;;5051872;28;20455;-65
2023/02/19 07:15:14;;;;;;;0.77;0.50;;;;;;;;;;5054026;28;20941;-66
2023/02/19 07:17:41;;;;;;;0.80;0.60;;;;;;;;;;5053809;28;20455;-65
2023/02/19 07:20:08;;;;;;;1.10;0.63;;;;;;;;;;5053934;28;20446;-66
2023/02/19 07:22:36;;;;;;;0.73;0.63;;;;;;;;;;5053611;28;20478;-66
2023/02/19 07:25:03;;;;;;;0.70;0.50;;;;;;;;;;5053131;28;20447;-66
2023/02/19 07:27:30;;;;;;;2.07;0.87;;;;;;;;;;5054058;28;20446;-66
2023/02/19 07:29:57;;;;;;;0.83;0.67;;;;;;;;;;5053178;28;20450;-66
2023/02/19 07:32:26;;;;;;;0.80;0.60;;;;;;;;;;5053627;28;20946;-67
2023/02/19 07:34:53;;;;;;;1.03;0.50;;;;;;;;;;5052897;28;20452;-66
2023/02/19 07:37:20;;;;;;;1.30;0.77;;;;;;;;;;5053545;28;20865;-66
2023/02/19 07:39:47;;;;;;;0.87;0.70;;;;;;;;;;5053613;28;20450;-66
2023/02/19 07:42:14;;;;;;;1.50;0.53;;;;;;;;;;5053417;28;20442;-66
2023/02/19 07:44:41;;;;;;;0.70;0.50;;;;;;;;;;5052630;28;20446;-65
2023/02/19 07:47:08;;;;;;;0.90;0.53;;;;;;;;;;5053546;28;20446;-66
2023/02/19 07:49:37;;;;;;;0.80;0.60;;;;;;;;;;5053764;28;20457;-66
2023/02/19 07:52:04;;;;;;;0.80;0.50;;;;;;;;;;5052478;28;20970;-66
2023/02/19 07:54:31;;;;;;;0.80;0.50;;;;;;;;;;5053288;28;20462;-66
2023/02/19 07:56:59;;;;;;;1.37;0.77;;;;;;;;;;5052457;28;20516;-66
2023/02/19 07:59:26;;;;;;;1.13;0.83;;;;;;;;;;5053473;28;20591;-66
2023/02/19 08:04:39;;;;;;;1.10;0.80;;;;;;;;;;5053022;28;20900;-66
2023/02/19 08:07:06;;;;;;;0.87;0.60;;;;;;;;;;5052994;28;20463;-66
2023/02/19 08:09:34;;;;;;;1.17;0.80;;;;;;;;;;5053263;28;20479;-66
2023/02/19 08:14:45;;;;;;;0.70;0.50;;;;;;;;;;5050528;28;20453;-66
2023/02/19 08:17:12;;;;;;;1.70;0.70;;;;;;;;;;5051941;28;20449;-66
2023/02/19 08:19:41;;;;;;;0.83;0.70;;;;;;;;;;5053316;28;20466;-66
2023/02/19 08:22:08;;;;;;;0.90;0.70;;;;;;;;;;5053371;28;20449;-67
2023/02/19 08:24:36;;;;;;;1.80;0.97;;;;;;;;;;5052075;28;20478;-67
2023/02/19 08:27:03;;;;;;;1.00;0.67;;;;;;;;;;5052282;28;20455;-66
2023/02/19 08:29:30;;;;;;;0.83;0.70;;;;;;;;;;5053330;28;20447;-67
2023/02/19 08:31:57;;;;;;;0.80;0.70;;;;;;;;;;5052509;28;20446;-66
2023/02/19 08:34:25;;;;;;;0.70;0.50;;;;;;;;;;5047419;28;20451;-66
2023/02/19 08:36:53;;;;;;;0.77;0.63;;;;;;;;;;5052155;28;20454;-66
2023/02/19 08:39:20;;;;;;;0.70;0.60;;;;;;;;;;5052807;28;20454;-66
2023/02/19 08:41:47;;;;;;;0.80;0.50;;;;;;;;;;5052322;28;20458;-66
2023/02/19 08:44:14;;;;;;;0.70;0.50;;;;;;;;;;5052433;28;20880;-67
2023/02/19 08:46:41;;;;;;;1.00;0.70;;;;;;;;;;5052171;28;20461;-66
2023/02/19 08:49:09;;;;;;;0.70;0.60;;;;;;;;;;5053080;28;20446;-66
2023/02/19 08:51:35;;;;;;;0.90;0.50;;;14.10;99.90;;;;;;5052510;28;20932;-67
2023/02/19 08:54:04;;;;;;;0.70;0.53;;;10.40;1.00;;;;;;5051549;28;20459;-66
2023/02/19 08:56:31;;;;;;;0.90;0.60;;;10.40;1.00;;;;;;5052602;28;20869;-67
2023/02/19 08:58:57;;;;;;;0.70;0.50;;;10.40;1.00;;;;;;5051784;28;20486;-66
2023/02/19 09:01:24;;;;;;;0.83;0.67;;;10.50;1.00;;;;;;5051992;28;20442;-67
2023/02/19 09:03:51;;;;;;;1.37;0.50;;;10.50;1.00;;;;;;5051201;28;21018;-66
2023/02/19 09:06:20;;;;;;;0.87;0.67;;;10.50;1.00;;;;;;5052094;28;20458;-66
2023/02/19 09:08:47;;;;;;;0.93;0.80;;;10.40;99.90;;;;;;5051604;28;20478;-66
2023/02/19 09:11:15;;;;;;;0.70;0.50;;;10.40;99.90;;;;;;5052320;28;20442;-66
2023/02/19 09:13:42;;;;;;;1.40;0.70;;;10.50;99.90;;;;;;5051493;28;20446;-66
2023/02/19 09:16:10;;;;;;;0.80;0.70;;;10.50;99.90;;;;;;5052352;28;20455;-66
2023/02/19 09:18:37;;;;;;;1.90;0.67;;;10.60;99.90;;;;;;5052302;28;20446;-66
2023/02/19 09:21:05;;;;;;;0.73;0.53;;;10.60;99.90;;;;;;5051058;28;20548;-67
2023/02/19 09:23:33;;;;;;;1.63;1.30;;;10.60;99.90;;;;;;5051612;28;20482;-67
2023/02/19 09:26:02;;;;;;;1.87;0.80;;;10.60;1.00;;;;;;5051470;28;20454;-66
2023/02/19 09:28:30;;;;;;;0.93;0.50;;;10.60;1.00;;;;;;5052002;28;20454;-68
2023/02/19 09:30:57;;;;;;;0.70;0.50;;;10.70;1.00;;;;;;5051068;28;20438;-67
2023/02/19 09:33:23;;;;;;;1.10;0.83;;;10.70;1.00;;;;;;5051511;28;20793;-67
2023/02/19 09:35:50;;;;;;;1.70;1.10;;;10.80;1.00;;;;;;5050671;28;20442;-66
2023/02/19 09:38:17;;;;;;;1.13;0.80;;;10.80;1.00;;;;;;5052234;28;20446;-67
2023/02/19 09:40:44;;;;;;;1.23;1.13;;;10.90;1.00;;;;;;5051133;28;20451;-66
2023/02/19 09:43:18;;;;;;;0.90;0.67;;;10.90;1.00;;;;;;5051387;28;20492;-67
2023/02/19 09:45:46;;;;;;;1.00;0.70;;;10.90;1.00;;;;;;5050815;28;20927;-68
2023/02/19 09:48:13;;;;;;;0.80;0.70;;;;;;;;;;5051137;28;20465;-67
2023/02/19 09:50:49;;;;;;;0.90;0.60;;;;;;;;;;5050259;28;20454;-67
2023/02/19 09:53:18;;;;;;;1.90;0.80;;;;;;;;;;5049679;28;20442;-67
2023/02/19 09:55:45;;;;;;;0.83;0.53;;;;;;;;;;5050008;28;20451;-66
2023/02/19 09:58:19;;;;;;;0.70;0.57;;;;;;;;;;5051204;28;20470;-67
2023/02/19 10:00:49;;;;;;;2.30;1.27;;;;;;;;;;5050877;28;20801;-66
2023/02/19 10:03:21;;;;;;;1.30;0.70;;;;;;;;;;5050629;28;20470;-67
2023/02/19 10:05:48;;;;;;;2.07;1.23;;;;;;;;;;5050359;28;20461;-66
2023/02/19 10:08:20;;;;;;;1.37;0.70;;;;;;;;;;5051077;28;20454;-67
2023/02/19 10:10:47;;;;;;;1.80;0.60;;;;;;;;;;5050660;28;20453;-67
2023/02/19 10:13:18;;;;;;;1.27;0.60;;;;;;;;;;5049885;28;20447;-67
2023/02/19 10:15:49;;;;;;;0.83;0.53;;;;;;;;;;5050387;28;20989;-66
2023/02/19 10:18:18;;;;;;;2.23;0.67;;;;;;;;;;5051185;28;20442;-66
2023/02/19 10:20:45;;;;;;;1.83;1.07;;;;;;;;;;5050178;28;20438;-66
2023/02/19 10:23:14;;;;;;;0.80;0.60;;;;;;;;;;5050375;28;20469;-67
2023/02/19 10:25:43;;;;;;;0.90;0.60;;;;;;;;;;5049380;28;20469;-68
2023/02/19 10:28:13;;;;;;;0.90;0.60;;;;;;;;;;5050199;28;20458;-66
2023/02/19 10:30:40;;;;;;;0.80;0.60;;;;;;;;;;5050070;28;20466;-66
2023/02/19 10:33:11;;;;;;;1.00;0.50;;;;;;;;;;5049797;28;20465;-66
2023/02/19 10:35:39;;;;;;;1.90;0.83;;;;;;;;;;5050566;28;20989;-66
2023/02/19 10:38:07;;;;;;;0.87;0.70;;;;;;;;;;5050361;28;20457;-68
2023/02/19 10:40:34;;;;;;;0.67;0.43;;;;;;;;;;5054330;28;20505;-67
2023/02/19 10:43:02;;;;;;;2.50;0.70;;;;;;;;;;5050034;28;20485;-67
2023/02/19 10:45:34;;;;;;;1.33;0.80;;;;;;;;;;5050665;28;20470;-66
2023/02/19 10:48:01;;;;;;;2.80;0.80;;;;;;;;;;5053082;28;20808;-66
2023/02/19 10:50:31;;;;;;;2.00;0.80;;;;;;;;;;5054776;28;20435;-66
2023/02/19 10:52:59;;;;;;;1.27;0.80;;;;;;;;;;5053892;28;20474;-66
2023/02/19 10:55:28;;;;;;;1.37;0.60;;;;;;;;;;5054741;28;20465;-71
2023/02/19 10:57:55;;;;;;;1.70;0.70;;;;;;;;;;5054383;28;20450;-68
2023/02/19 11:00:25;;;;;;;2.20;0.93;;;;;;;;;;5054743;28;20434;-68
2023/02/19 11:03:12;;;;;;;0.60;0.43;;;;;;;;;;5054074;28;20450;-68
2023/02/19 11:05:50;;;;;;;2.40;0.70;;;;;;;;;;5054379;28;20442;-69
2023/02/19 11:08:21;;;;;;;1.43;0.60;;;;;;;;;;5047604;28;20478;-68
2023/02/19 11:10:48;;;;;;;1.10;0.80;;;;;;;;;;5051092;28;20442;-67
2023/02/19 11:13:17;;;;;;;3.07;1.13;;;;;;;;;;5051508;28;20450;-67
2023/02/19 11:15:44;;;;;;;1.47;0.57;;;;;;;;;;5051654;28;20476;-67
2023/02/19 11:18:18;;;;;;;0.80;0.70;;;;;;;;;;5052048;28;20454;-67
2023/02/19 11:20:49;;;;;;;1.10;0.90;;;;;;;;;;5051077;28;20453;-67
2023/02/19 11:23:25;;;;;;;0.90;0.60;;;;;;;;;;5051207;28;20465;-67
2023/02/19 11:25:54;;;;;;;2.87;1.83;;;;;;;;;;5049178;28;20860;-68
2023/02/19 11:28:24;;;;;;;4.90;0.80;;;;;;;;;;5051887;28;20521;-68
2023/02/19 11:30:51;;;;;;;2.07;0.60;;;;;;;;;;5050074;28;20446;-67
2023/02/19 11:33:26;;;;;;;0.80;0.80;;;;;;;;;;5051377;28;20449;-67
2023/02/19 11:35:56;;;;;;;1.30;0.60;;;;;;;;;;5050597;28;20488;-67
2023/02/19 11:38:23;;;;;;;0.83;0.70;;;;;;;;;;5051755;28;20454;-68
2023/02/19 11:40:53;;;;;;;0.77;0.60;;;;;;;;;;5061791;28;20461;-67
2023/02/19 11:43:28;;;;;;;1.13;0.57;;;;;;;;;;5051122;28;20504;-66
2023/02/19 11:45:59;;;;;;;1.97;0.83;;;;;;;;;;5050753;28;20938;-67
2023/02/19 11:48:43;;;;;;;2.20;0.80;;;;;;;;;;5051468;28;20465;-67
2023/02/19 11:51:17;;;;;;;1.00;0.90;;;;;;;;;;5050893;28;20442;-66
2023/02/19 11:53:48;;;;;;;1.50;0.70;;;10.90;1.00;;;;;;5050086;28;20533;-66
2023/02/19 11:56:18;;;;;;;0.73;0.73;;;11.40;99.90;;;;;;5051113;28;20473;-67
2023/02/19 11:59:03;;;;;;;0.77;0.63;;;11.40;99.90;;;;;;5049444;28;20456;-68
2023/02/19 12:01:53;;;;;;;1.10;0.60;;;11.60;99.90;;;;;;5051166;28;20547;-66
2023/02/19 12:04:53;;;;;;;0.83;0.80;;;11.60;99.90;;;;;;5050797;28;20474;-67
2023/02/19 12:07:35;;;;;;;1.53;1.43;;;11.50;99.90;;;;;;5051637;28;20465;-66
2023/02/19 12:10:10;;;;;;;1.30;0.80;;;11.50;99.90;;;;;;5040999;28;20481;-66
2023/02/19 12:12:57;;;;;;;2.10;0.70;;;11.50;99.90;;;;;;5050574;28;20457;-66
2023/02/19 12:15:37;;;;;;;0.70;0.60;;;11.60;99.90;;;;;;5050977;28;20454;-66
2023/02/19 12:18:12;;;;;;;1.37;1.10;;;;;;;;;;5050184;28;20445;-66
2023/02/19 12:20:43;;;;;;;2.87;1.20;;;11.60;99.90;;;;;;5045680;28;20957;-67
2023/02/19 12:23:33;;;;;;;0.80;0.70;;;;;;;;;;5049957;28;20512;-67
2023/02/19 12:26:05;;;;;;;1.17;0.50;;;;;;;;;;5047711;28;20847;-67
2023/02/19 12:28:42;;;;;;;1.50;0.80;;;;;;;;;;5050576;28;20450;-67
2023/02/19 12:31:16;;;;;;;1.53;0.63;;;;;;;;;;5050840;28;20446;-66
2023/02/19 12:33:58;;;;;;;2.20;1.20;;;;;;;;;;5049640;28;20447;-67
2023/02/19 12:36:28;;;;;;;1.07;0.77;;;;;;;;;;5048191;28;20458;-67
2023/02/19 12:39:01;;;;;;;1.60;0.70;;;;;;;;;;5049598;28;20450;-67
2023/02/19 12:41:34;;;;;;;2.80;0.73;;;;;;;;;;5050114;28;21088;-67
2023/02/19 12:44:04;;;;;;;1.53;0.70;;;;;;;;;;5049023;28;20532;-67
2023/02/19 12:46:32;;;;;;;0.80;0.63;;;;;;;;;;5049800;28;20454;-67
2023/02/19 12:49:02;;;;;;;0.97;0.70;;;;;;;;;;5049291;28;20533;-67
2023/02/19 12:51:36;;;;;;;10.80;0.90;;;;;;;;;;5049938;28;20825;-67
2023/02/19 12:54:06;;;;;;;0.70;0.60;;;;;;;;;;5048549;28;20484;-67
2023/02/19 12:56:36;;;;;;;0.93;0.83;;;;;;;;;;5049614;28;20435;-67
2023/02/19 12:59:04;;;;;;;0.83;0.67;;;;;;;;;;5049606;28;20446;-69
2023/02/19 13:01:34;;;;;;;0.83;0.80;;;;;;;;;;5049087;28;20454;-67
2023/02/19 13:04:15;;;;;;;1.17;0.83;;;;;;;;;;5049070;28;20694;-67
2023/02/19 13:06:43;;;;;;;1.60;0.70;;;;;;;;;;5048576;28;20464;-67
2023/02/19 13:09:14;;;;;;;2.00;0.77;;;;;;;;;;5049582;28;20473;-67
2023/02/19 13:11:43;;;;;;;2.00;0.80;;;;;;;;;;5048857;28;20792;-67
2023/02/19 13:14:16;;;;;;;0.70;0.50;;;;;;;;;;5047748;28;20458;-66
2023/02/19 13:16:46;;;;;;;1.23;0.70;;;;;;;;;;5049040;28;20477;-66
2023/02/19 13:19:14;;;;;;;1.77;0.60;;;;;;;;;;5049131;28;20799;-66
2023/02/19 13:24:29;;;;;;;1.07;0.80;;;;;;;;;;5046787;28;20499;-66
2023/02/19 13:27:02;;;;;;;1.13;0.73;;;;;;;;;;5048892;28;20469;-66
2023/02/19 13:29:46;;;;;;;2.00;0.80;;;11.60;99.90;;;;;;5039724;28;20454;-66
2023/02/19 13:32:43;;;;;;;1.57;0.90;;;11.80;99.90;;;;;;5048092;28;21376;-66
2023/02/19 13:35:19;;;;;;;1.00;0.73;;;;;;;;;;5048687;28;20807;-67
2023/02/19 13:37:46;;;;;;;2.70;0.83;;;;;;;;;;5047762;28;20472;-66
2023/02/19 13:40:22;;;;;;;1.17;0.90;;;;;;;;;;5048082;28;20442;-66
2023/02/19 13:42:52;;;;;;;2.43;0.90;;;;;;;;;;5047640;28;20450;-66
2023/02/19 13:45:22;;;;;;;2.47;1.10;;;;;;;;;;5049104;28;20470;-66
2023/02/19 13:47:58;;;;;;;1.33;1.00;;;;;;;;;;5048182;28;20458;-66
2023/02/19 13:50:26;;;;;;;1.50;0.77;;;;;;;;;;5047797;28;20446;-68
2023/02/19 13:52:53;;;;;;;1.60;0.73;;;;;;;;;;5047704;28;20761;-70
2023/02/19 13:55:41;;;;;;;0.90;0.80;;;;;;;;;;5047906;28;20978;-70
2023/02/19 13:58:35;;;;;;;1.60;0.90;;;;;;;;;;5044581;28;20810;-70
2023/02/19 14:01:05;;;;;;;0.93;0.70;;;11.80;99.90;;;;;;5012225;28;20462;-67
2023/02/19 14:03:45;;;;;;;1.17;0.90;;;11.60;99.90;;;;;;5047737;28;20517;-67
2023/02/19 14:06:12;;;;;;;0.80;0.60;;;11.50;99.90;;;;;;5047296;28;20476;-66
2023/02/19 14:08:51;;;;;;;1.13;0.97;;;11.60;99.90;;;;;;5047984;28;21139;-66
2023/02/19 14:11:38;;;;;;;1.47;0.60;;;11.70;99.90;;;;;;5045504;28;20450;-66
2023/02/19 14:14:25;;;;;;;3.27;0.80;;;11.60;99.90;;;;;;5047451;28;20482;-66
2023/02/19 14:17:03;;;;;;;2.40;0.90;;;11.70;99.90;;;;;;5037897;28;20477;-67
2023/02/19 14:20:01;;;;;;;1.90;1.07;;;11.80;99.90;;;;;;5047970;28;20450;-66
2023/02/19 14:23:00;;;;;;;2.67;0.80;;;11.70;99.90;;;;;;4985233;28;20553;-66
2023/02/19 14:25:33;;;;;;;1.07;0.70;;;11.70;99.90;;;;;;5045717;28;20474;-67
2023/02/19 14:28:02;;;;;;;1.57;0.97;;;11.80;99.90;;;;;;5047112;28;20944;-68
2023/02/19 14:30:30;;;;;;;1.50;0.80;;;11.80;99.90;;;;;;5047762;28;20951;-66
2023/02/19 14:33:00;;;;;;;0.90;0.70;;;11.70;99.90;;;;;;5047462;28;20446;-66
2023/02/19 14:35:34;;;;;;;0.70;0.63;;;11.80;99.90;;;;;;5048116;28;20540;-66
2023/02/19 14:38:02;;;;;;;1.70;0.90;;;;;;;;;;5047592;28;20922;-66
2023/02/19 14:40:33;;;;;;;1.33;0.90;;;;;;;;;;5048475;28;20841;-67
2023/02/19 14:43:01;;;;;;;1.03;0.80;;;;;;;;;;5047322;28;20446;-66
2023/02/19 14:45:28;;;;;;;1.57;0.70;;;;;;;;;;5047773;28;20490;-66
2023/02/19 14:47:58;;;;;;;2.30;1.30;;;11.70;99.90;;;;;;5047516;28;20457;-66
2023/02/19 14:50:29;;;;;;;1.00;0.73;;;11.60;99.90;;;;;;5047994;28;20454;-67
2023/02/19 14:53:00;;;;;;;2.53;0.90;;;11.70;99.90;;;;;;5047467;28;20447;-67
2023/02/19 14:55:31;;;;;;;2.00;0.90;;;11.60;99.90;;;;;;5048059;28;20823;-68
2023/02/19 14:58:00;;;;;;;1.10;0.80;;;11.60;99.90;;;;;;5046804;28;20435;-68
2023/02/19 15:00:30;;;;;;;1.10;0.80;;;11.50;99.90;;;;;;5047689;28;20454;-67
2023/02/19 15:02:58;;;;;;;2.57;1.03;;;11.60;99.90;;;;;;5046865;28;20455;-66
2023/02/19 15:05:28;;;;;;;1.33;0.77;;;11.60;99.90;;;;;;5047397;28;20492;-66